Redwood Falls Municipal Airport


Codes: KRWF/
Name: Redwood Falls Municipal Airport
City: Redwood Falls
Country: United States
Elevation: 1024 ft.

Photos at Redwood Falls Municipal Airport


   Photos courtesy of SpottingLog. You can add your own sightings and photos by signing up for a free trial today.



No photos found.

Weather at Redwood Falls Municipal Airport


Time (UTC)DescriptionTempratureWindCloud coverageVisibilityPressureHumidity
16-Jun-2024 00:00Light Rain21°C11 mph, SE100%7203m1008hPa88%
16-Jun-2024 03:00Moderate Rain20°C13 mph, S100%4678m1007hPa91%
16-Jun-2024 06:00Moderate Rain20°C7 mph, SE100%10000m1005hPa96%
16-Jun-2024 09:00Overcast Clouds18°C9 mph, SE100%10000m1001hPa96%
16-Jun-2024 12:00Overcast Clouds19°C7 mph, S88%10000m1002hPa95%
16-Jun-2024 15:00Scattered Clouds25°C11 mph, SW26%10000m1002hPa78%
16-Jun-2024 18:00Scattered Clouds28°C11 mph, SW30%10000m1002hPa63%
16-Jun-2024 21:00Broken Clouds27°C13 mph, NW84%10000m1003hPa73%
17-Jun-2024 00:00Broken Clouds24°C13 mph, NW75%10000m1006hPa78%
17-Jun-2024 03:00Light Rain21°C11 mph, N85%10000m1008hPa73%
17-Jun-2024 06:00Light Rain17°C7 mph, NE85%10000m1009hPa82%
17-Jun-2024 09:00Light Rain17°C2 mph, NE100%10000m1010hPa87%
17-Jun-2024 12:00Moderate Rain15°C9 mph, SE100%4343m1009hPa90%
17-Jun-2024 15:00Heavy Intensity Rain14°C13 mph, N100%0m1009hPa98%
17-Jun-2024 18:00Heavy Intensity Rain16°C16 mph, E100%4642m1007hPa97%
17-Jun-2024 21:00Moderate Rain17°C13 mph, E100%7942m1005hPa97%
18-Jun-2024 00:00Moderate Rain20°C11 mph, E98%10000m1003hPa95%
18-Jun-2024 03:00Light Rain24°C16 mph, S69%10000m1001hPa91%
18-Jun-2024 06:00Light Rain24°C20 mph, S57%10000m1000hPa86%
18-Jun-2024 09:00Clear Sky23°C22 mph, S1%10000m999hPa78%
18-Jun-2024 12:00Moderate Rain23°C18 mph, S23%10000m1001hPa89%
18-Jun-2024 15:00Light Rain24°C20 mph, S96%10000m1001hPa87%
18-Jun-2024 18:00Light Rain26°C20 mph, S98%10000m1002hPa84%
18-Jun-2024 21:00Moderate Rain19°C16 mph, NW92%10000m1006hPa94%
19-Jun-2024 00:00Light Rain15°C16 mph, NW96%10000m1011hPa92%
19-Jun-2024 03:00Light Rain13°C11 mph, NW88%10000m1016hPa92%
19-Jun-2024 06:00Overcast Clouds13°C9 mph, NW94%10000m1019hPa89%
19-Jun-2024 09:00Overcast Clouds13°C4 mph, NW100%10000m1021hPa90%
19-Jun-2024 12:00Overcast Clouds13°C7 mph, N98%10000m1022hPa91%
19-Jun-2024 15:00Overcast Clouds16°C7 mph, N100%10000m1024hPa76%
19-Jun-2024 18:00Overcast Clouds18°C4 mph, NE100%10000m1025hPa66%
19-Jun-2024 21:00Overcast Clouds20°C7 mph, NE100%10000m1024hPa64%
20-Jun-2024 00:00Overcast Clouds19°C4 mph, E100%10000m1024hPa75%
20-Jun-2024 03:00Few Clouds15°C4 mph, SE17%10000m1025hPa89%
20-Jun-2024 06:00Clear Sky13°C4 mph, SE10%10000m1026hPa91%
20-Jun-2024 09:00Broken Clouds15°C4 mph, E71%10000m1026hPa86%
20-Jun-2024 12:00Overcast Clouds15°C7 mph, E85%10000m1026hPa89%
20-Jun-2024 15:00Overcast Clouds17°C9 mph, SE95%10000m1026hPa85%
20-Jun-2024 18:00Overcast Clouds18°C11 mph, SE96%10000m1024hPa87%
20-Jun-2024 21:00Moderate Rain18°C7 mph, E100%6896m1022hPa97%